Time;durP1;ratioP1;P1;durP2;ratioP2;P2;SDS_P1;SDS_P2;PMS_P1;PMS_P2;Temp;Humidity;BMP_temperature;BMP_pressure;BME280_temperature;BME280_humidity;BME280_pressure;Samples;Min_cycle;Max_cycle;Signal;HPM_P1;HPM_P2
2021/11/17 02:27:00;;;;;;;;;;;6.10;99.90;;;;;;5009669;28;19959;-68
2021/11/17 02:29:28;;;;;;;;;;;6.10;99.90;;;;;;5010699;28;19916;-68
2021/11/17 02:31:56;;;;;;;;;;;6.10;47.80;;;;;;5010230;28;19920;-68
2021/11/17 02:34:31;;;;;;;;;;;6.10;1.00;;;;;;5010282;28;19916;-69
2021/11/17 02:37:09;;;;;;;;;;;6.10;1.00;;;;;;5010354;28;19985;-67
2021/11/17 02:39:44;;;;;;;;;;;6.10;1.00;;;;;;5009309;28;19913;-68
2021/11/17 02:42:19;;;;;;;;;;;6.10;1.00;;;;;;5009930;28;20260;-68
2021/11/17 02:57:24;;;;;;;;;;;6.10;1.00;;;;;;5010350;28;20436;-68
2021/11/17 03:00:08;;;;;;;;;;;6.10;1.00;;;;;;5008047;28;19936;-68
2021/11/17 03:02:34;;;;;;;;;;;6.20;1.00;;;;;;5009748;28;20341;-69
2021/11/17 03:05:00;;;;;;;;;;;6.20;1.00;;;;;;5011578;28;19913;-69
2021/11/17 03:07:43;;;;;;;;;;;6.10;99.90;;;;;;5001618;28;19952;-69
2021/11/17 03:10:18;;;;;;;;;;;6.10;99.90;;;;;;5011023;28;20342;-68
2021/11/17 03:12:46;;;;;;;;;;;6.10;99.90;;;;;;5006514;28;20353;-69
2021/11/17 03:15:28;;;;;;;;;;;6.20;99.90;;;;;;5009869;28;20349;-67
2021/11/17 03:18:00;;;;;;;;;;;6.20;99.90;;;;;;5009363;28;20313;-71
2021/11/17 03:20:44;;;;;;;;;;;6.20;99.90;;;;;;5008527;28;19921;-69
2021/11/17 03:23:32;;;;;;;;;;;6.20;99.90;;;;;;5007270;28;19913;-68
2021/11/17 03:26:07;;;;;;;;;;;6.20;99.90;;;;;;4981734;28;19920;-69
2021/11/17 03:28:33;;;;;;;;;;;6.20;1.00;;;;;;5009761;28;19909;-68
2021/11/17 03:31:07;;;;;;;;;;;6.20;1.00;;;;;;5009790;28;20489;-68
2021/11/17 03:33:36;;;;;;;;;;;6.10;1.00;;;;;;5008056;28;19953;-67
2021/11/17 03:36:16;;;;;;;;;;;6.20;99.90;;;;;;5009740;28;19914;-67
2021/11/17 03:38:42;;;;;;;;;;;6.20;99.90;;;;;;5007655;28;19913;-68
2021/11/17 03:41:10;;;;;;;;;;;6.10;99.90;;;;;;5009712;28;20565;-68
2021/11/17 03:43:48;;;;;;;;;;;6.10;28.50;;;;;;5007257;28;19917;-67
2021/11/17 03:46:13;;;;;;;;;;;6.20;1.00;;;;;;5009522;28;19909;-67
2021/11/17 03:48:48;;;;;;;;;;;6.10;99.90;;;;;;5009037;28;19910;-67
2021/11/17 03:51:17;;;;;;;;;;;6.10;99.90;;;;;;5009419;28;20307;-67
2021/11/17 03:53:51;;;;;;;;;;;6.10;99.90;;;;;;5006745;28;19995;-67
2021/11/17 03:56:16;;;;;;;;;;;6.10;99.90;;;;;;5009702;28;19913;-68
2021/11/17 03:58:45;;;;;;;;;;;6.10;99.90;;;;;;5009643;28;19920;-68
2021/11/17 04:01:29;;;;;;;;;;;6.10;99.90;;;;;;5005387;28;20374;-68
2021/11/17 04:04:00;;;;;;;;;;;6.10;99.90;;;;;;4987533;28;20290;-68
2021/11/17 04:06:26;;;;;;;;;;;6.10;57.30;;;;;;5005596;28;19909;-67
2021/11/17 04:09:07;;;;;;;;;;;6.10;1.00;;;;;;5007510;28;19920;-67
2021/11/17 04:11:52;;;;;;;;;;;6.10;1.00;;;;;;5009345;28;20346;-67
2021/11/17 04:14:35;;;;;;;;;;;6.10;1.00;;;;;;5008568;28;19913;-68
2021/11/17 04:17:03;;;;;;;;;;;6.10;99.90;;;;;;5009106;28;19913;-69
2021/11/17 04:19:35;;;;;;;;;;;6.10;1.00;;;;;;5009305;28;19920;-68
2021/11/17 04:22:00;;;;;;;;;;;6.10;1.00;;;;;;5008227;28;19917;-68
2021/11/17 04:24:44;;;;;;;;;;;6.10;1.00;;;;;;5007365;28;19913;-69
2021/11/17 04:27:32;;;;;;;;;;;6.10;1.00;;;;;;5009019;28;20469;-69
2021/11/17 04:29:57;;;;;;;;;;;6.10;99.90;;;;;;5009003;28;19909;-67
2021/11/17 04:32:38;;;;;;;;;;;6.10;99.90;;;;;;5008154;28;19914;-67
2021/11/17 04:35:20;;;;;;;;;;;6.10;1.00;;;;;;5009143;28;20370;-68
2021/11/17 04:38:03;;;;;;;;;;;6.10;1.00;;;;;;5007205;28;19916;-68
2021/11/17 04:40:49;;;;;;;;;;;6.10;1.00;;;;;;5009614;28;19920;-67
2021/11/17 04:43:50;;;;;;;;;;;6.10;1.00;;;;;;5002236;28;19918;-69
2021/11/17 04:46:24;;;;;;;;;;;6.10;1.00;;;;;;4928921;29;19914;-68
2021/11/17 04:49:01;;;;;;;;;;;6.10;1.00;;;;;;4980528;28;19909;-68
2021/11/17 04:51:45;;;;;;;;;;;6.10;1.00;;;;;;4993231;28;19913;-68
2021/11/17 04:54:14;;;;;;;;;;;6.10;1.00;;;;;;4991625;28;19917;-69
2021/11/17 04:56:45;;;;;;;;;;;6.20;1.00;;;;;;4993165;28;19914;-68
2021/11/17 04:59:30;;;;;;;;;;;6.20;1.00;;;;;;4992987;28;19913;-69
2021/11/17 05:02:21;;;;;;;;;;;6.10;1.00;;;;;;4992143;28;19917;-68
2021/11/17 05:05:06;;;;;;;;;;;6.20;1.00;;;;;;4992145;28;20321;-67
2021/11/17 05:07:40;;;;;;;;;;;6.10;1.00;;;;;;5010811;28;19990;-68
2021/11/17 05:10:35;;;;;;;;;;;6.20;1.00;;;;;;5012935;28;20359;-67
2021/11/17 05:13:03;;;;;;;;;;;6.20;1.00;;;;;;4957802;28;19918;-68
2021/11/17 05:16:01;;;;;;;;;;;6.20;1.00;;;;;;5012362;28;19921;-68
2021/11/17 05:18:27;;;;;;;;;;;6.20;1.00;;;;;;4967377;28;19924;-68
2021/11/17 05:20:59;;;;;;;;;;;6.20;1.00;;;;;;5012419;28;20362;-67
2021/11/17 05:23:24;;;;;;;;;;;6.20;1.00;;;;;;5009821;28;20024;-69
2021/11/17 05:26:05;;;;;;;;;;;6.20;1.00;;;;;;5007793;28;19964;-67
2021/11/17 05:28:31;;;;;;;;;;;6.20;1.00;;;;;;5011624;28;19991;-69
2021/11/17 05:30:59;;;;;;;;;;;6.20;1.00;;;;;;5010046;28;19914;-67
2021/11/17 05:33:37;;;;;;;;;;;6.20;99.90;;;;;;5010666;28;20311;-69
2021/11/17 05:36:21;;;;;;;;;;;6.10;99.90;;;;;;5011857;28;19909;-68
2021/11/17 05:39:11;;;;;;;;;;;6.20;99.90;;;;;;5009979;28;20000;-68
2021/11/17 05:41:55;;;;;;;;;;;6.20;99.90;;;;;;5011473;28;19909;-67
2021/11/17 05:44:33;;;;;;;;;;;6.20;1.00;;;;;;5010728;28;19920;-67
2021/11/17 05:47:17;;;;;;;;;;;6.20;1.00;;;;;;5011765;28;19945;-67
2021/11/17 05:49:52;;;;;;;;;;;6.20;1.00;;;;;;5011540;28;19909;-68
2021/11/17 05:52:36;;;;;;;;;;;6.20;1.00;;;;;;5009917;28;20009;-67
2021/11/17 05:55:20;;;;;;;;;;;6.20;1.00;;;;;;4997994;28;19923;-67
2021/11/17 05:57:49;;;;;;;;;;;6.20;1.00;;;;;;4991574;28;20370;-68
2021/11/17 06:00:14;;;;;;;;;;;6.20;7.60;;;;;;4989450;28;19925;-68
2021/11/17 06:02:41;;;;;;;;;;;6.20;50.00;;;;;;4986426;28;19929;-68
2021/11/17 06:05:06;;;;;;;;;;;6.20;99.90;;;;;;4993961;28;19910;-66
2021/11/17 06:07:32;;;;;;;;;;;6.20;99.90;;;;;;4998358;28;20032;-70
2021/11/17 06:10:09;;;;;;;;;;;6.20;99.90;;;;;;5007558;28;19933;-69
2021/11/17 06:12:35;;;;;;;;;;;6.20;99.90;;;;;;4996161;28;20026;-71
2021/11/17 06:15:00;;;;;;;;;;;6.20;99.90;;;;;;5008834;28;19992;-69
2021/11/17 06:17:26;;;;;;;;;;;6.20;1.00;;;;;;5008348;28;19909;-68
2021/11/17 06:19:53;;;;;;;;;;;6.20;1.00;;;;;;5009276;28;19925;-68
2021/11/17 06:22:21;;;;;;;;;;;6.20;1.00;;;;;;5006630;28;19913;-71
2021/11/17 06:24:47;;;;;;;;;;;6.20;1.00;;;;;;5006940;28;19941;-70
2021/11/17 06:27:15;;;;;;;;;;;6.20;1.00;;;;;;5008215;28;19913;-68
2021/11/17 06:29:42;;;;;;;;;;;6.20;1.00;;;;;;5008350;28;19910;-68
2021/11/17 06:32:09;;;;;;;;;;;6.20;1.00;;;;;;5007406;28;19916;-68
2021/11/17 06:34:35;;;;;;;;;;;6.20;50.30;;;;;;5007715;28;19921;-68
2021/11/17 06:37:02;;;;;;;;;;;6.20;99.90;;;;;;5008375;28;19913;-70
2021/11/17 06:39:28;;;;;;;;;;;6.20;99.90;;;;;;5005993;28;19920;-69
2021/11/17 06:41:54;;;;;;;;;;;6.20;99.90;;;;;;5007746;28;19913;-68
2021/11/17 06:44:20;;;;;;;;;;;6.20;99.90;;;;;;5006232;28;19933;-69
2021/11/17 06:46:46;;;;;;;;;;;6.20;1.00;;;;;;5007844;28;19921;-69
2021/11/17 06:49:12;;;;;;;;;;;6.20;1.00;;;;;;5007698;28;19925;-68
2021/11/17 06:51:37;;;;;;;;;;;6.20;18.80;;;;;;5008080;28;20366;-68
2021/11/17 06:54:03;;;;;;;;;;;6.20;99.90;;;;;;5005336;28;19909;-68
2021/11/17 06:56:28;;;;;;;;;;;6.20;99.90;;;;;;5008034;28;19913;-67
2021/11/17 06:58:54;;;;;;;;;;;6.30;99.90;;;;;;5007329;28;19929;-68
2021/11/17 07:01:20;;;;;;;;;;;6.30;99.90;;;;;;5008022;28;20041;-68
2021/11/17 07:03:45;;;;;;;;;;;6.20;99.90;;;;;;5006529;28;19957;-67
2021/11/17 07:06:11;;;;;;;;;;;6.20;99.90;;;;;;5007702;28;20001;-68
2021/11/17 07:08:37;;;;;;;;;;;6.30;99.90;;;;;;5006160;28;19914;-69
2021/11/17 07:11:03;;;;;;;;;;;6.30;99.90;;;;;;5007135;28;19968;-69
2021/11/17 07:13:28;;;;;;;;;;;6.30;1.00;;;;;;5005906;28;19914;-69
2021/11/17 07:15:54;;;;;;;;;;;6.30;1.00;;;;;;5007606;28;19928;-69
2021/11/17 07:18:20;;;;;;;;;;;6.30;1.00;;;;;;5007337;28;19918;-69
2021/11/17 07:20:45;;;;;;;;;;;6.40;99.90;;;;;;5007248;28;20204;-68
2021/11/17 07:23:11;;;;;;;;;;;6.40;99.90;;;;;;5004345;28;19960;-68
2021/11/17 07:25:37;;;;;;;;;;;6.40;99.90;;;;;;5007159;28;19992;-67
2021/11/17 07:28:03;;;;;;;;;;;6.40;99.90;;;;;;5008911;28;20044;-68
2021/11/17 07:30:30;;;;;;;;;;;6.40;97.60;;;;;;5010185;28;20003;-68
2021/11/17 07:32:56;;;;;;;;;;;6.50;1.00;;;;;;5008084;28;19920;-68
2021/11/17 07:35:23;;;;;;;;;;;6.50;1.00;;;;;;5009789;28;19913;-69
2021/11/17 07:37:49;;;;;;;;;;;6.60;72.50;;;;;;5007381;28;19913;-69
2021/11/17 07:40:15;;;;;;;;;;;6.60;1.00;;;;;;5008366;28;19991;-68
2021/11/17 07:42:41;;;;;;;;;;;6.70;1.00;;;;;;4996711;28;19982;-68
2021/11/17 07:45:08;;;;;;;;;;;6.80;99.90;;;;;;5007400;28;19992;-67
2021/11/17 07:47:33;;;;;;;;;;;6.80;99.90;;;;;;5009212;28;19917;-68
2021/11/17 07:50:01;;;;;;;;;;;6.80;1.00;;;;;;5010274;28;19909;-69
2021/11/17 07:52:27;;;;;;;;;;;6.90;99.90;;;;;;5007989;28;19941;-68
2021/11/17 07:54:53;;;;;;;;;;;6.90;1.00;;;;;;5008789;28;19956;-68
2021/11/17 07:57:19;;;;;;;;;;;6.90;1.00;;;;;;5008941;28;19965;-68
2021/11/17 07:59:44;;;;;;;;;;;6.90;99.90;;;;;;5009574;28;20338;-69
2021/11/17 08:02:11;;;;;;;;;;;6.90;99.90;;;;;;5008873;28;20014;-69
2021/11/17 08:04:38;;;;;;;;;;;7.00;1.00;;;;;;5009354;28;20354;-68
2021/11/17 08:07:06;;;;;;;;;;;7.00;1.00;;;;;;5009561;28;19920;-69
2021/11/17 08:09:31;;;;;;;;;;;7.20;1.00;;;;;;5007501;28;19963;-69
2021/11/17 08:11:57;;;;;;;;;;;7.20;1.00;;;;;;5007479;28;19914;-68
2021/11/17 08:14:22;;;;;;;;;;;7.30;1.00;;;;;;5014856;23;19932;-68
2021/11/17 08:16:48;;;;;;;;;;;7.40;99.90;;;;;;5008615;28;19910;-69
2021/11/17 08:19:13;;;;;;;;;;;7.50;99.90;;;;;;5009613;28;20005;-69
2021/11/17 08:21:39;;;;;;;;;;;7.50;43.60;;;;;;5009370;28;19917;-67
2021/11/17 08:24:04;;;;;;;;;;;7.60;1.00;;;;;;5007603;28;20267;-67
2021/11/17 08:26:30;;;;;;;;;;;7.60;1.00;;;;;;5014082;28;19913;-68
2021/11/17 08:28:56;;;;;;;;;;;7.60;1.00;;;;;;5013134;28;19921;-68
2021/11/17 08:31:24;;;;;;;;;;;7.60;1.00;;;;;;5012798;28;19917;-68
2021/11/17 08:33:50;;;;;;;;;;;7.60;99.90;;;;;;5011211;28;19917;-68
2021/11/17 08:36:16;;;;;;;;;;;7.50;99.90;;;;;;5013921;28;19979;-68
2021/11/17 08:38:41;;;;;;;;;;;7.50;99.90;;;;;;5012144;28;19913;-68
2021/11/17 08:41:08;;;;;;;;;;;7.50;99.90;;;;;;5014132;28;19909;-69
2021/11/17 08:43:34;;;;;;;;;;;7.50;99.90;;;;;;5004151;28;20005;-68
2021/11/17 08:46:00;;;;;;;;;;;7.50;99.90;;;;;;5011191;28;20642;-68
2021/11/17 08:48:27;;;;;;;;;;;7.40;99.90;;;;;;5012848;28;19960;-68
2021/11/17 08:50:54;;;;;;;;;;;7.50;99.90;;;;;;5013352;28;19910;-68
2021/11/17 08:53:20;;;;;;;;;;;7.40;99.90;;;;;;5010455;28;19909;-67
2021/11/17 08:55:46;;;;;;;;;;;7.40;99.90;;;;;;5013031;28;19975;-69
2021/11/17 08:58:13;;;;;;;;;;;7.40;99.90;;;;;;5012213;28;19992;-69
2021/11/17 09:00:38;;;;;;;;;;;7.40;99.90;;;;;;5012985;28;19909;-68
2021/11/17 09:03:06;;;;;;;;;;;7.30;99.90;;;;;;5011832;28;19983;-67
2021/11/17 09:05:33;;;;;;;;;;;7.30;99.90;;;;;;5012977;28;19925;-68
2021/11/17 09:07:59;;;;;;;;;;;7.30;99.90;;;;;;5010367;28;19963;-68
2021/11/17 09:10:29;;;;;;;;;;;7.30;99.90;;;;;;5012850;28;20403;-67
2021/11/17 09:12:55;;;;;;;;;;;7.30;99.90;;;;;;5011384;28;20385;-66
2021/11/17 09:15:22;;;;;;;;;;;7.40;99.90;;;;;;5012563;28;19992;-67
2021/11/17 09:17:48;;;;;;;;;;;7.40;99.90;;;;;;5010254;28;20377;-65
2021/11/17 09:20:14;;;;;;;;;;;7.30;99.90;;;;;;5012415;28;19956;-68
2021/11/17 09:22:41;;;;;;;;;;;7.40;99.90;;;;;;5009648;28;19917;-67
2021/11/17 09:25:07;;;;;;;;;;;7.30;99.90;;;;;;5012666;28;19909;-67
2021/11/17 09:27:33;;;;;;;;;;;7.40;93.70;;;;;;5010108;28;19920;-68
2021/11/17 09:29:59;;;;;;;;;;;7.50;53.60;;;;;;5012013;28;19914;-67
2021/11/17 09:32:24;;;;;;;;;;;7.60;37.00;;;;;;5011132;28;20377;-65
2021/11/17 09:34:50;;;;;;;;;;;7.70;15.50;;;;;;5012107;28;19982;-67
2021/11/17 09:37:15;;;;;;;;;;;7.80;1.00;;;;;;5011031;28;19992;-69
2021/11/17 09:39:42;;;;;;;;;;;7.90;1.00;;;;;;5010432;28;19921;-67
2021/11/17 09:42:08;;;;;;;;;;;7.90;1.00;;;;;;5010734;28;19920;-68
2021/11/17 09:44:39;;;;;;;;;;;8.00;1.00;;;;;;5011547;28;19914;-68
2021/11/17 09:47:06;;;;;;;;;;;8.00;1.00;;;;;;5011854;28;19910;-67
2021/11/17 09:49:32;;;;;;;;;;;8.00;1.00;;;;;;5011579;28;20414;-67
2021/11/17 09:52:00;;;;;;;;;;;8.10;1.00;;;;;;5011006;28;19913;-68
2021/11/17 09:54:28;;;;;;;;;;;8.20;1.00;;;;;;5009755;28;19917;-68
2021/11/17 09:56:58;;;;;;;;;;;8.30;1.00;;;;;;5011909;28;19936;-69
2021/11/17 09:59:33;;;;;;;;;;;8.30;1.00;;;;;;5011286;28;19961;-68
2021/11/17 10:02:17;;;;;;;;;;;8.30;1.00;;;;;;5010477;28;20366;-69
2021/11/17 10:04:49;;;;;;;;;;;8.30;1.00;;;;;;5011248;28;19916;-70
2021/11/17 10:13:01;;;;;;;;;;;8.10;1.00;;;;;;5010811;28;19943;-69
2021/11/17 10:15:31;;;;;;;;;;;8.00;1.00;;;;;;5011422;28;20239;-68
2021/11/17 10:18:11;;;;;;;;;;;8.00;1.00;;;;;;5009129;28;19909;-69
2021/11/17 10:20:57;;;;;;;;;;;7.90;1.00;;;;;;5003297;28;19949;-68
2021/11/17 10:23:24;;;;;;;;;;;7.70;1.00;;;;;;5008648;28;19910;-67
2021/11/17 10:25:52;;;;;;;;;;;7.60;1.00;;;;;;5011288;28;20329;-69
2021/11/17 10:28:22;;;;;;;;;;;7.60;1.00;;;;;;5010917;28;20259;-69
2021/11/17 10:31:03;;;;;;;;;;;7.50;1.00;;;;;;5011380;28;20345;-69
2021/11/17 10:34:07;;;;;;;;;;;7.50;1.00;;;;;;5010347;28;20036;-68
2021/11/17 10:36:46;;;;;;;;;;;7.40;1.00;;;;;;4949912;29;19964;-68
2021/11/17 10:39:17;;;;;;;;;;;7.30;1.00;;;;;;4948834;29;19921;-69
2021/11/17 10:42:00;;;;;;;;;;;7.30;1.00;;;;;;4950111;29;20359;-69
2021/11/17 10:44:51;;;;;;;;;;;7.40;1.00;;;;;;4951089;28;19917;-69
2021/11/17 10:47:20;;;;;;;;;;;7.50;1.00;;;;;;4931202;29;20431;-69
2021/11/17 10:50:06;;;;;;;;;;;7.50;1.00;;;;;;4949888;29;19994;-68
2021/11/17 10:52:31;;;;;;;;;;;7.60;1.00;;;;;;4941907;29;20016;-68
2021/11/17 10:54:58;;;;;;;;;;;7.60;1.00;;;;;;4951841;28;19997;-67
2021/11/17 10:57:25;;;;;;;;;;;7.50;1.00;;;;;;4953020;29;19910;-67
2021/11/17 10:59:51;;;;;;;;;;;7.50;1.00;;;;;;4953218;29;20608;-68
2021/11/17 11:02:17;;;;;;;;;;;7.60;1.00;;;;;;4952968;29;20667;-68
2021/11/17 11:04:45;;;;;;;;;;;7.60;1.00;;;;;;4953711;28;19910;-68
2021/11/17 11:07:24;;;;;;;;;;;7.70;1.00;;;;;;4970797;28;20049;-67
2021/11/17 11:09:58;;;;;;;;;;;7.70;1.00;;;;;;4993334;28;20291;-69
2021/11/17 11:12:25;;;;;;;;;;;7.90;1.00;;;;;;4992188;28;20003;-67
2021/11/17 11:14:55;;;;;;;;;;;8.00;1.00;;;;;;4991042;28;19921;-69
2021/11/17 11:17:21;;;;;;;;;;;8.00;1.00;;;;;;4990732;28;19968;-67
2021/11/17 11:19:46;;;;;;;;;;;8.00;1.00;;;;;;4990660;28;20414;-68
2021/11/17 11:22:22;;;;;;;;;;;8.00;1.00;;;;;;4989903;28;19914;-67
2021/11/17 11:24:48;;;;;;;;;;;8.00;1.00;;;;;;4989874;28;20367;-67
2021/11/17 11:27:15;;;;;;;;;;;8.00;1.00;;;;;;4990399;28;19982;-69
2021/11/17 11:30:07;;;;;;;;;;;8.00;1.00;;;;;;4990370;28;19914;-69
2021/11/17 11:32:32;;;;;;;;;;;7.90;1.00;;;;;;4988809;28;19913;-67
2021/11/17 11:34:58;;;;;;;;;;;7.90;1.00;;;;;;4988205;28;20406;-68
2021/11/17 11:37:23;;;;;;;;;;;7.90;1.00;;;;;;4989562;28;19910;-69
2021/11/17 11:39:50;;;;;;;;;;;7.80;1.00;;;;;;4989140;28;19930;-69
2021/11/17 11:42:39;;;;;;;;;;;7.80;1.00;;;;;;4999872;28;19909;-69
2021/11/17 11:45:07;;;;;;;;;;;7.70;1.00;;;;;;5002318;28;20545;-67
2021/11/17 11:47:53;;;;;;;;;;;7.70;1.00;;;;;;5009920;28;19920;-69
2021/11/17 11:50:30;;;;;;;;;;;7.70;1.00;;;;;;5009684;28;19967;-69
2021/11/17 11:53:15;;;;;;;;;;;7.80;1.00;;;;;;5007079;28;19913;-68
2021/11/17 11:55:50;;;;;;;;;;;7.80;1.00;;;;;;5010050;28;19909;-68
2021/11/17 11:58:18;;;;;;;;;;;7.80;1.00;;;;;;5008959;28;19932;-68
2021/11/17 12:00:44;;;;;;;;;;;7.90;1.00;;;;;;5009295;28;20050;-68
2021/11/17 12:03:12;;;;;;;;;;;7.90;1.00;;;;;;5008457;28;19953;-69
2021/11/17 12:05:38;;;;;;;;;;;7.90;1.00;;;;;;5007827;28;19909;-69
2021/11/17 12:08:19;;;;;;;;;;;7.90;1.00;;;;;;5007853;28;20409;-69
2021/11/17 12:11:06;;;;;;;;;;;8.00;1.00;;;;;;5009401;28;19913;-69
2021/11/17 12:13:34;;;;;;;;;;;8.10;1.00;;;;;;5008786;28;20009;-69
2021/11/17 12:16:08;;;;;;;;;;;8.10;1.00;;;;;;5009338;28;20008;-68
2021/11/17 12:18:48;;;;;;;;;;;8.00;1.00;;;;;;5009001;28;19925;-68
2021/11/17 12:21:37;;;;;;;;;;;8.00;1.00;;;;;;5009416;28;19909;-69
2021/11/17 12:24:07;;;;;;;;;;;8.10;1.00;;;;;;4998491;28;20000;-69
2021/11/17 12:26:34;;;;;;;;;;;8.10;1.00;;;;;;5008945;28;20009;-69
2021/11/17 12:29:15;;;;;;;;;;;8.10;1.00;;;;;;5008524;28;20350;-68
2021/11/17 12:32:01;;;;;;;;;;;8.10;1.00;;;;;;5009951;28;20388;-68
2021/11/17 12:34:29;;;;;;;;;;;8.00;1.00;;;;;;4996561;28;20327;-70
2021/11/17 12:36:57;;;;;;;;;;;8.10;1.00;;;;;;5008923;28;19913;-69
2021/11/17 12:39:24;;;;;;;;;;;8.00;1.00;;;;;;5007851;28;19953;-69
2021/11/17 12:41:58;;;;;;;;;;;8.00;1.00;;;;;;5008836;28;20367;-68
2021/11/17 12:44:26;;;;;;;;;;;8.00;1.00;;;;;;5009113;28;19916;-69
2021/11/17 12:47:09;;;;;;;;;;;8.00;1.00;;;;;;5009707;28;19956;-68
2021/11/17 12:49:37;;;;;;;;;;;8.00;1.00;;;;;;5009380;28;19909;-70
2021/11/17 12:52:07;;;;;;;;;;;8.00;1.00;;;;;;5008760;28;20000;-69
2021/11/17 12:54:35;;;;;;;;;;;8.00;1.00;;;;;;5007600;28;20007;-69
2021/11/17 12:57:06;;;;;;;;;;;8.00;1.00;;;;;;4997774;28;19918;-66
2021/11/17 12:59:40;;;;;;;;;;;7.90;1.00;;;;;;4989507;28;19917;-69
2021/11/17 13:02:21;;;;;;;;;;;7.90;1.00;;;;;;4989052;28;19914;-69
2021/11/17 13:04:47;;;;;;;;;;;7.90;1.00;;;;;;4992128;28;19950;-69
2021/11/17 13:07:29;;;;;;;;;;;7.80;1.00;;;;;;5008224;28;20327;-68
2021/11/17 13:09:56;;;;;;;;;;;7.80;1.00;;;;;;5008557;28;20198;-70
2021/11/17 13:12:30;;;;;;;;;;;7.80;1.00;;;;;;5011259;28;19916;-67
2021/11/17 13:14:58;;;;;;;;;;;7.80;1.00;;;;;;5011915;28;19918;-69
2021/11/17 13:17:32;;;;;;;;;;;7.80;1.00;;;;;;5011848;28;19932;-67
2021/11/17 13:20:18;;;;;;;;;;;7.80;1.00;;;;;;5003890;28;19918;-69
2021/11/17 13:23:06;;;;;;;;;;;7.80;1.00;;;;;;4998780;28;20020;-69
2021/11/17 13:25:47;;;;;;;;;;;7.80;1.00;;;;;;5004080;28;19980;-70
2021/11/17 13:28:32;;;;;;;;;;;7.80;1.00;;;;;;5011869;28;19948;-68
2021/11/17 13:30:57;;;;;;;;;;;7.70;1.00;;;;;;5012161;28;19917;-68
2021/11/17 13:33:25;;;;;;;;;;;7.70;1.00;;;;;;5010313;28;20590;-69
2021/11/17 13:36:03;;;;;;;;;;;7.60;1.00;;;;;;5012102;28;20315;-70
2021/11/17 13:38:28;;;;;;;;;;;7.70;1.00;;;;;;5009932;28;19972;-70
2021/11/17 13:40:55;;;;;;;;;;;7.70;1.00;;;;;;5011949;28;20327;-70
2021/11/17 13:43:21;;;;;;;;;;;7.70;1.00;;;;;;5007038;28;20044;-69
2021/11/17 13:45:48;;;;;;;;;;;7.60;1.00;;;;;;5010028;28;20388;-69
2021/11/17 13:48:15;;;;;;;;;;;7.60;1.00;;;;;;5009796;28;19962;-69
2021/11/17 13:50:41;;;;;;;;;;;7.60;1.00;;;;;;5012131;28;19953;-70
2021/11/17 13:53:08;;;;;;;;;;;7.60;1.00;;;;;;4997592;28;19909;-69
2021/11/17 13:55:38;;;;;;;;;;;7.50;1.00;;;;;;4991437;28;20000;-69
2021/11/17 13:58:05;;;;;;;;;;;7.50;1.00;;;;;;4991203;28;19922;-70
2021/11/17 14:00:30;;;;;;;;;;;7.50;1.00;;;;;;4992132;28;19922;-69
2021/11/17 14:02:58;;;;;;;;;;;7.50;1.00;;;;;;4989912;28;19920;-69
2021/11/17 14:05:24;;;;;;;;;;;7.40;1.00;;;;;;4999711;28;19909;-70
2021/11/17 14:07:49;;;;;;;;;;;7.40;1.00;;;;;;5009042;28;19920;-68
2021/11/17 14:10:17;;;;;;;;;;;7.40;1.00;;;;;;5011706;28;20425;-70
2021/11/17 14:12:43;;;;;;;;;;;7.40;1.00;;;;;;5010111;28;19925;-69
2021/11/17 14:15:09;;;;;;;;;;;7.30;1.00;;;;;;5011502;28;19921;-69
2021/11/17 14:17:35;;;;;;;;;;;7.40;1.00;;;;;;5008756;28;19913;-68
2021/11/17 14:20:00;;;;;;;;;;;7.40;1.00;;;;;;5011630;28;20441;-68
2021/11/17 14:22:26;;;;;;;;;;;7.40;1.00;;;;;;5009189;28;19914;-68
2021/11/17 14:24:56;;;;;;;;;;;7.40;26.20;;;;;;5010267;28;19917;-67
2021/11/17 14:27:23;;;;;;;;;;;7.30;59.80;;;;;;5010965;28;19960;-69
2021/11/17 14:29:50;;;;;;;;;;;7.30;99.90;;;;;;5010562;28;19910;-68
2021/11/17 14:32:17;;;;;;;;;;;7.30;99.90;;;;;;5010344;28;19917;-68
2021/11/17 14:34:43;;;;;;;;;;;7.20;99.90;;;;;;5011165;28;20297;-69
2021/11/17 14:37:10;;;;;;;;;;;7.20;99.90;;;;;;5011156;28;19910;-69
2021/11/17 14:39:37;;;;;;;;;;;7.20;99.90;;;;;;5009268;28;19988;-68
2021/11/17 14:42:03;;;;;;;;;;;7.20;99.90;;;;;;5009540;28;19969;-70
2021/11/17 14:44:29;;;;;;;;;;;7.20;99.90;;;;;;5000073;28;20279;-69
2021/11/17 14:46:54;;;;;;;;;;;7.20;99.90;;;;;;5008956;28;19910;-69
2021/11/17 14:49:20;;;;;;;;;;;7.20;99.90;;;;;;5009146;28;19924;-68
2021/11/17 14:51:46;;;;;;;;;;;7.10;99.90;;;;;;5010178;28;20132;-69
2021/11/17 14:54:11;;;;;;;;;;;7.10;99.90;;;;;;5008174;28;20004;-68
2021/11/17 14:56:38;;;;;;;;;;;7.10;99.90;;;;;;5010585;28;19959;-67
2021/11/17 14:59:03;;;;;;;;;;;7.10;99.90;;;;;;5010515;28;19920;-67
2021/11/17 15:01:32;;;;;;;;;;;7.10;99.90;;;;;;5010968;28;19909;-68
2021/11/17 15:03:58;;;;;;;;;;;7.10;99.90;;;;;;5009716;28;19944;-68
2021/11/17 15:06:24;;;;;;;;;;;7.10;99.90;;;;;;5010704;28;20027;-68
2021/11/17 15:08:50;;;;;;;;;;;7.10;99.90;;;;;;5009833;28;19909;-69
2021/11/17 15:11:16;;;;;;;;;;;7.10;99.90;;;;;;5010574;28;19959;-68
2021/11/17 15:13:41;;;;;;;;;;;7.10;99.90;;;;;;5009737;28;19910;-69
2021/11/17 15:16:11;;;;;;;;;;;7.10;99.90;;;;;;5010334;28;19923;-68
2021/11/17 15:18:43;;;;;;;;;;;7.10;99.90;;;;;;5010584;28;19920;-70
2021/11/17 15:21:09;;;;;;;;;;;7.00;99.90;;;;;;5009588;28;19917;-67
2021/11/17 15:23:34;;;;;;;;;;;7.00;99.90;;;;;;5008303;28;20310;-69
2021/11/17 15:26:04;;;;;;;;;;;7.00;99.90;;;;;;5010497;28;19963;-68
2021/11/17 15:28:32;;;;;;;;;;;7.00;99.90;;;;;;5010402;28;19945;-69
2021/11/17 15:31:03;;;;;;;;;;;7.00;99.90;;;;;;5010731;28;19920;-69
2021/11/17 15:33:29;;;;;;;;;;;6.90;99.90;;;;;;5009200;28;19920;-67
2021/11/17 15:35:55;;;;;;;;;;;6.90;99.90;;;;;;5010593;28;19992;-68
2021/11/17 15:38:21;;;;;;;;;;;6.90;99.90;;;;;;5008443;28;19917;-69
2021/11/17 15:40:51;;;;;;;;;;;6.90;99.90;;;;;;5010857;28;19914;-68
2021/11/17 15:43:17;;;;;;;;;;;6.90;99.90;;;;;;4998746;28;20424;-68
2021/11/17 15:45:43;;;;;;;;;;;6.90;99.90;;;;;;5008053;28;19920;-69
2021/11/17 15:48:08;;;;;;;;;;;6.80;99.90;;;;;;5009186;28;19921;-69
2021/11/17 15:50:39;;;;;;;;;;;6.90;99.90;;;;;;5010466;28;19977;-69
2021/11/17 15:53:05;;;;;;;;;;;6.80;99.90;;;;;;5006272;28;19925;-68
2021/11/17 15:55:30;;;;;;;;;;;6.80;99.90;;;;;;5009960;28;19999;-67
2021/11/17 15:57:56;;;;;;;;;;;6.80;99.90;;;;;;5009702;28;20000;-69
2021/11/17 16:00:23;;;;;;;;;;;6.80;1.00;;;;;;5009465;28;19976;-69
2021/11/17 16:02:49;;;;;;;;;;;6.80;1.00;;;;;;5008498;28;20353;-68
2021/11/17 16:05:15;;;;;;;;;;;6.80;1.00;;;;;;5009791;28;19909;-68
2021/11/17 16:07:40;;;;;;;;;;;6.80;1.00;;;;;;5008266;28;19921;-68
2021/11/17 16:10:07;;;;;;;;;;;6.80;1.00;;;;;;5009875;28;19909;-68
2021/11/17 16:12:34;;;;;;;;;;;6.80;1.00;;;;;;5008070;28;20521;-69
2021/11/17 16:15:00;;;;;;;;;;;6.80;1.00;;;;;;5009528;28;19922;-69
2021/11/17 16:17:26;;;;;;;;;;;6.80;1.00;;;;;;5009371;28;20012;-68
2021/11/17 16:19:53;;;;;;;;;;;6.80;1.00;;;;;;5009333;28;20078;-68
2021/11/17 16:22:31;;;;;;;;;;;6.80;1.00;;;;;;5008410;28;19913;-69
2021/11/17 16:27:42;;;;;;;;;;;6.80;1.00;;;;;;5009286;28;20715;-68
2021/11/17 16:30:11;;;;;;;;;;;6.80;1.00;;;;;;5009240;28;19909;-69
2021/11/17 16:32:38;;;;;;;;;;;6.80;1.00;;;;;;5008098;28;20323;-69
2021/11/17 16:35:03;;;;;;;;;;;6.80;1.00;;;;;;5009301;28;19913;-68
2021/11/17 16:37:29;;;;;;;;;;;6.80;1.00;;;;;;5008483;28;19979;-69
2021/11/17 16:39:54;;;;;;;;;;;6.80;1.00;;;;;;5008583;28;19913;-69
2021/11/17 16:42:20;;;;;;;;;;;6.80;1.00;;;;;;5008429;28;20290;-69
2021/11/17 16:44:46;;;;;;;;;;;6.80;1.00;;;;;;5008428;28;19945;-69
2021/11/17 16:47:11;;;;;;;;;;;6.70;1.00;;;;;;5012368;28;20242;-68
2021/11/17 16:49:41;;;;;;;;;;;6.80;1.00;;;;;;5012080;28;19910;-69
2021/11/17 16:52:06;;;;;;;;;;;6.70;1.00;;;;;;5012601;28;19935;-68
2021/11/17 16:54:32;;;;;;;;;;;6.70;1.00;;;;;;5011468;28;20013;-68
2021/11/17 16:56:58;;;;;;;;;;;6.70;1.00;;;;;;5012675;28;20318;-68
2021/11/17 16:59:23;;;;;;;;;;;6.70;1.00;;;;;;5011848;28;20437;-69
2021/11/17 17:01:49;;;;;;;;;;;6.70;1.00;;;;;;5012412;28;20319;-69
2021/11/17 17:04:14;;;;;;;;;;;6.70;1.00;;;;;;5012159;28;19917;-68
2021/11/17 17:06:40;;;;;;;;;;;6.70;1.00;;;;;;5012687;28;20385;-68
2021/11/17 17:09:05;;;;;;;;;;;6.70;1.00;;;;;;5010779;28;19913;-69
2021/11/17 17:11:31;;;;;;;;;;;6.70;1.00;;;;;;5012630;28;20040;-68
2021/11/17 17:13:57;;;;;;;;;;;6.70;1.00;;;;;;5011371;28;19963;-67
2021/11/17 17:16:24;;;;;;;;;;;6.70;1.00;;;;;;5012614;28;19914;-68
2021/11/17 17:18:49;;;;;;;;;;;6.70;1.00;;;;;;5008189;28;19917;-67
2021/11/17 17:21:15;;;;;;;;;;;6.70;1.00;;;;;;5006270;28;20359;-68
2021/11/17 17:23:44;;;;;;;;;;;6.70;1.00;;;;;;5010004;28;19909;-68
2021/11/17 17:26:15;;;;;;;;;;;6.70;1.00;;;;;;5012483;28;19913;-68
2021/11/17 17:28:41;;;;;;;;;;;6.70;1.00;;;;;;5011596;28;19914;-69
2021/11/17 17:31:08;;;;;;;;;;;6.70;1.00;;;;;;5012035;28;20275;-68
2021/11/17 17:33:35;;;;;;;;;;;6.60;1.00;;;;;;5011475;28;19913;-69
2021/11/17 17:36:01;;;;;;;;;;;6.60;1.00;;;;;;5012173;28;20080;-69
2021/11/17 17:38:26;;;;;;;;;;;6.60;1.00;;;;;;5010505;28;20038;-69
2021/11/17 17:40:52;;;;;;;;;;;6.60;1.00;;;;;;5012284;28;19921;-68
2021/11/17 17:43:19;;;;;;;;;;;6.60;1.00;;;;;;4991586;28;19909;-68